sensor_id;sensor_type;location;lat;lon;timestamp;P1;durP1;ratioP1;P2;durP2;ratioP2
12654;SDS011;6392;44.644;11.448;2023-10-31T00:02:08;3.13;;;1.27;;
12654;SDS011;6392;44.644;11.448;2023-10-31T00:04:35;3.53;;;1.30;;
12654;SDS011;6392;44.644;11.448;2023-10-31T00:07:04;4.57;;;1.00;;
12654;SDS011;6392;44.644;11.448;2023-10-31T00:09:31;4.13;;;1.57;;
12654;SDS011;6392;44.644;11.448;2023-10-31T00:11:58;2.90;;;1.60;;
12654;SDS011;6392;44.644;11.448;2023-10-31T00:14:25;4.67;;;1.50;;
12654;SDS011;6392;44.644;11.448;2023-10-31T00:16:52;4.07;;;1.13;;
12654;SDS011;6392;44.644;11.448;2023-10-31T00:19:19;2.13;;;1.07;;
12654;SDS011;6392;44.644;11.448;2023-10-31T00:21:46;6.30;;;1.00;;
12654;SDS011;6392;44.644;11.448;2023-10-31T00:24:15;3.13;;;1.27;;
12654;SDS011;6392;44.644;11.448;2023-10-31T00:26:42;2.97;;;1.10;;
12654;SDS011;6392;44.644;11.448;2023-10-31T00:29:09;1.77;;;1.10;;
12654;SDS011;6392;44.644;11.448;2023-10-31T00:31:36;2.83;;;1.10;;
12654;SDS011;6392;44.644;11.448;2023-10-31T00:34:06;1.33;;;0.90;;
12654;SDS011;6392;44.644;11.448;2023-10-31T00:36:33;2.53;;;1.10;;
12654;SDS011;6392;44.644;11.448;2023-10-31T00:39:01;2.67;;;1.17;;
12654;SDS011;6392;44.644;11.448;2023-10-31T00:41:29;1.53;;;0.97;;
12654;SDS011;6392;44.644;11.448;2023-10-31T00:43:56;4.37;;;1.00;;
12654;SDS011;6392;44.644;11.448;2023-10-31T00:46:24;4.03;;;1.30;;
12654;SDS011;6392;44.644;11.448;2023-10-31T00:48:51;4.87;;;1.30;;
12654;SDS011;6392;44.644;11.448;2023-10-31T00:51:18;2.50;;;1.10;;
12654;SDS011;6392;44.644;11.448;2023-10-31T00:53:45;3.60;;;1.30;;
12654;SDS011;6392;44.644;11.448;2023-10-31T00:56:12;2.10;;;1.00;;
12654;SDS011;6392;44.644;11.448;2023-10-31T00:58:40;3.30;;;1.30;;
12654;SDS011;6392;44.644;11.448;2023-10-31T01:01:07;1.77;;;1.00;;
12654;SDS011;6392;44.644;11.448;2023-10-31T01:03:34;3.20;;;1.00;;
12654;SDS011;6392;44.644;11.448;2023-10-31T01:06:01;4.77;;;1.10;;
12654;SDS011;6392;44.644;11.448;2023-10-31T01:08:28;6.83;;;1.00;;
12654;SDS011;6392;44.644;11.448;2023-10-31T01:10:56;2.70;;;1.10;;
12654;SDS011;6392;44.644;11.448;2023-10-31T01:13:23;3.80;;;1.30;;
12654;SDS011;6392;44.644;11.448;2023-10-31T01:15:51;3.37;;;1.53;;
12654;SDS011;6392;44.644;11.448;2023-10-31T01:18:18;2.03;;;1.00;;
12654;SDS011;6392;44.644;11.448;2023-10-31T01:20:45;2.33;;;1.37;;
12654;SDS011;6392;44.644;11.448;2023-10-31T01:23:12;2.17;;;1.20;;
12654;SDS011;6392;44.644;11.448;2023-10-31T01:25:39;2.87;;;1.10;;
12654;SDS011;6392;44.644;11.448;2023-10-31T01:28:06;1.87;;;0.90;;
12654;SDS011;6392;44.644;11.448;2023-10-31T01:30:33;3.03;;;1.10;;
12654;SDS011;6392;44.644;11.448;2023-10-31T01:33:02;2.53;;;1.10;;
12654;SDS011;6392;44.644;11.448;2023-10-31T01:35:29;1.50;;;1.07;;
12654;SDS011;6392;44.644;11.448;2023-10-31T01:37:56;3.60;;;1.23;;
12654;SDS011;6392;44.644;11.448;2023-10-31T01:40:23;2.30;;;1.10;;
12654;SDS011;6392;44.644;11.448;2023-10-31T01:42:50;1.60;;;0.90;;
12654;SDS011;6392;44.644;11.448;2023-10-31T01:45:17;1.97;;;1.00;;
12654;SDS011;6392;44.644;11.448;2023-10-31T01:47:44;1.33;;;0.90;;
12654;SDS011;6392;44.644;11.448;2023-10-31T01:50:16;0.83;;;0.80;;
12654;SDS011;6392;44.644;11.448;2023-10-31T01:52:44;2.80;;;1.10;;
12654;SDS011;6392;44.644;11.448;2023-10-31T01:55:11;1.97;;;0.83;;
12654;SDS011;6392;44.644;11.448;2023-10-31T01:57:38;4.20;;;1.03;;
12654;SDS011;6392;44.644;11.448;2023-10-31T02:00:06;1.67;;;0.67;;
12654;SDS011;6392;44.644;11.448;2023-10-31T02:02:37;2.87;;;1.00;;
12654;SDS011;6392;44.644;11.448;2023-10-31T02:05:06;4.47;;;1.17;;
12654;SDS011;6392;44.644;11.448;2023-10-31T02:07:35;2.43;;;1.10;;
12654;SDS011;6392;44.644;11.448;2023-10-31T02:10:02;2.67;;;1.00;;
12654;SDS011;6392;44.644;11.448;2023-10-31T02:12:33;1.10;;;0.63;;
12654;SDS011;6392;44.644;11.448;2023-10-31T02:15:00;2.73;;;0.80;;
12654;SDS011;6392;44.644;11.448;2023-10-31T02:17:27;3.70;;;1.10;;
12654;SDS011;6392;44.644;11.448;2023-10-31T02:19:54;1.27;;;0.83;;
12654;SDS011;6392;44.644;11.448;2023-10-31T02:22:23;3.43;;;1.00;;
12654;SDS011;6392;44.644;11.448;2023-10-31T02:24:50;1.40;;;0.87;;
12654;SDS011;6392;44.644;11.448;2023-10-31T02:27:17;3.17;;;1.23;;
12654;SDS011;6392;44.644;11.448;2023-10-31T02:29:44;1.30;;;0.80;;
12654;SDS011;6392;44.644;11.448;2023-10-31T02:32:11;2.33;;;0.87;;
12654;SDS011;6392;44.644;11.448;2023-10-31T02:34:38;2.37;;;0.90;;
12654;SDS011;6392;44.644;11.448;2023-10-31T02:37:05;1.20;;;0.93;;
12654;SDS011;6392;44.644;11.448;2023-10-31T02:39:35;1.93;;;0.90;;
12654;SDS011;6392;44.644;11.448;2023-10-31T02:42:03;2.00;;;1.10;;
12654;SDS011;6392;44.644;11.448;2023-10-31T02:44:31;1.40;;;0.80;;
12654;SDS011;6392;44.644;11.448;2023-10-31T02:46:58;2.40;;;1.13;;
12654;SDS011;6392;44.644;11.448;2023-10-31T02:49:25;2.03;;;1.00;;
12654;SDS011;6392;44.644;11.448;2023-10-31T02:51:52;4.90;;;1.30;;
12654;SDS011;6392;44.644;11.448;2023-10-31T02:54:19;1.77;;;1.00;;
12654;SDS011;6392;44.644;11.448;2023-10-31T02:56:47;1.77;;;0.90;;
12654;SDS011;6392;44.644;11.448;2023-10-31T02:59:14;2.57;;;0.80;;
12654;SDS011;6392;44.644;11.448;2023-10-31T03:01:41;3.80;;;1.23;;
12654;SDS011;6392;44.644;11.448;2023-10-31T03:04:08;3.50;;;1.07;;
12654;SDS011;6392;44.644;11.448;2023-10-31T03:06:35;3.33;;;1.20;;
12654;SDS011;6392;44.644;11.448;2023-10-31T03:09:03;5.13;;;1.23;;
12654;SDS011;6392;44.644;11.448;2023-10-31T03:11:30;2.03;;;1.10;;
12654;SDS011;6392;44.644;11.448;2023-10-31T03:13:59;4.60;;;1.13;;
12654;SDS011;6392;44.644;11.448;2023-10-31T03:16:26;1.47;;;0.83;;
12654;SDS011;6392;44.644;11.448;2023-10-31T03:18:53;1.90;;;1.10;;
12654;SDS011;6392;44.644;11.448;2023-10-31T03:21:20;3.70;;;1.10;;
12654;SDS011;6392;44.644;11.448;2023-10-31T03:23:48;3.27;;;0.93;;
12654;SDS011;6392;44.644;11.448;2023-10-31T03:26:18;3.07;;;1.00;;
12654;SDS011;6392;44.644;11.448;2023-10-31T03:28:45;5.03;;;1.30;;
12654;SDS011;6392;44.644;11.448;2023-10-31T03:31:14;3.53;;;1.20;;
12654;SDS011;6392;44.644;11.448;2023-10-31T03:33:41;3.13;;;1.30;;
12654;SDS011;6392;44.644;11.448;2023-10-31T03:36:09;4.03;;;1.27;;
12654;SDS011;6392;44.644;11.448;2023-10-31T03:38:36;2.13;;;1.10;;
12654;SDS011;6392;44.644;11.448;2023-10-31T03:41:03;2.47;;;1.10;;
12654;SDS011;6392;44.644;11.448;2023-10-31T03:43:30;3.40;;;1.03;;
12654;SDS011;6392;44.644;11.448;2023-10-31T03:45:57;4.50;;;1.10;;
12654;SDS011;6392;44.644;11.448;2023-10-31T03:48:26;4.03;;;1.00;;
12654;SDS011;6392;44.644;11.448;2023-10-31T03:50:53;1.50;;;1.00;;
12654;SDS011;6392;44.644;11.448;2023-10-31T03:53:20;3.47;;;1.10;;
12654;SDS011;6392;44.644;11.448;2023-10-31T03:55:47;2.07;;;1.20;;
12654;SDS011;6392;44.644;11.448;2023-10-31T03:58:14;5.03;;;1.43;;
12654;SDS011;6392;44.644;11.448;2023-10-31T04:00:41;5.93;;;1.30;;
12654;SDS011;6392;44.644;11.448;2023-10-31T04:03:08;5.93;;;1.27;;
12654;SDS011;6392;44.644;11.448;2023-10-31T04:05:37;5.97;;;1.30;;
12654;SDS011;6392;44.644;11.448;2023-10-31T04:08:04;1.53;;;0.90;;
12654;SDS011;6392;44.644;11.448;2023-10-31T04:10:31;3.73;;;1.50;;
12654;SDS011;6392;44.644;11.448;2023-10-31T04:12:58;2.90;;;1.50;;
12654;SDS011;6392;44.644;11.448;2023-10-31T04:15:25;3.83;;;1.80;;
12654;SDS011;6392;44.644;11.448;2023-10-31T04:17:52;2.87;;;1.70;;
12654;SDS011;6392;44.644;11.448;2023-10-31T04:20:19;2.77;;;1.37;;
12654;SDS011;6392;44.644;11.448;2023-10-31T04:22:48;3.40;;;1.30;;
12654;SDS011;6392;44.644;11.448;2023-10-31T04:25:15;5.00;;;1.50;;
12654;SDS011;6392;44.644;11.448;2023-10-31T04:27:42;4.80;;;1.50;;
12654;SDS011;6392;44.644;11.448;2023-10-31T04:30:09;2.53;;;1.20;;
12654;SDS011;6392;44.644;11.448;2023-10-31T04:32:37;4.60;;;1.30;;
12654;SDS011;6392;44.644;11.448;2023-10-31T04:35:04;2.50;;;1.27;;
12654;SDS011;6392;44.644;11.448;2023-10-31T04:37:31;3.30;;;1.10;;
12654;SDS011;6392;44.644;11.448;2023-10-31T04:40:00;3.40;;;0.97;;
12654;SDS011;6392;44.644;11.448;2023-10-31T04:42:28;1.47;;;1.03;;
12654;SDS011;6392;44.644;11.448;2023-10-31T04:44:55;2.73;;;1.10;;
12654;SDS011;6392;44.644;11.448;2023-10-31T04:47:22;2.20;;;0.90;;
12654;SDS011;6392;44.644;11.448;2023-10-31T04:49:49;2.73;;;0.90;;
12654;SDS011;6392;44.644;11.448;2023-10-31T04:52:17;2.33;;;1.20;;
12654;SDS011;6392;44.644;11.448;2023-10-31T04:54:44;2.70;;;0.80;;
12654;SDS011;6392;44.644;11.448;2023-10-31T04:57:13;2.80;;;0.73;;
12654;SDS011;6392;44.644;11.448;2023-10-31T04:59:40;3.27;;;0.90;;
12654;SDS011;6392;44.644;11.448;2023-10-31T05:02:07;2.03;;;0.53;;
12654;SDS011;6392;44.644;11.448;2023-10-31T05:04:37;6.13;;;0.90;;
12654;SDS011;6392;44.644;11.448;2023-10-31T05:07:04;0.70;;;0.50;;
12654;SDS011;6392;44.644;11.448;2023-10-31T05:09:31;2.67;;;0.80;;
12654;SDS011;6392;44.644;11.448;2023-10-31T05:11:58;6.93;;;0.87;;
12654;SDS011;6392;44.644;11.448;2023-10-31T05:14:27;3.60;;;0.67;;
12654;SDS011;6392;44.644;11.448;2023-10-31T05:16:54;1.70;;;0.70;;
12654;SDS011;6392;44.644;11.448;2023-10-31T05:19:21;2.03;;;0.60;;
12654;SDS011;6392;44.644;11.448;2023-10-31T05:21:48;3.17;;;0.67;;
12654;SDS011;6392;44.644;11.448;2023-10-31T05:24:15;2.47;;;0.73;;
12654;SDS011;6392;44.644;11.448;2023-10-31T05:26:42;3.87;;;0.80;;
12654;SDS011;6392;44.644;11.448;2023-10-31T05:29:09;2.10;;;0.57;;
12654;SDS011;6392;44.644;11.448;2023-10-31T05:31:38;4.53;;;0.77;;
12654;SDS011;6392;44.644;11.448;2023-10-31T05:34:06;4.20;;;0.90;;
12654;SDS011;6392;44.644;11.448;2023-10-31T05:36:33;3.27;;;0.60;;
12654;SDS011;6392;44.644;11.448;2023-10-31T05:39:00;6.10;;;1.27;;
12654;SDS011;6392;44.644;11.448;2023-10-31T05:41:28;1.87;;;0.60;;
12654;SDS011;6392;44.644;11.448;2023-10-31T05:43:55;1.73;;;0.90;;
12654;SDS011;6392;44.644;11.448;2023-10-31T05:46:22;4.00;;;0.80;;
12654;SDS011;6392;44.644;11.448;2023-10-31T05:48:50;4.20;;;0.83;;
12654;SDS011;6392;44.644;11.448;2023-10-31T05:51:17;4.50;;;0.70;;
12654;SDS011;6392;44.644;11.448;2023-10-31T05:53:46;3.37;;;0.80;;
12654;SDS011;6392;44.644;11.448;2023-10-31T05:56:14;5.10;;;0.97;;
12654;SDS011;6392;44.644;11.448;2023-10-31T05:58:42;3.37;;;0.70;;
12654;SDS011;6392;44.644;11.448;2023-10-31T06:01:10;2.00;;;1.00;;
12654;SDS011;6392;44.644;11.448;2023-10-31T06:03:37;4.57;;;1.03;;
12654;SDS011;6392;44.644;11.448;2023-10-31T06:06:09;4.00;;;0.57;;
12654;SDS011;6392;44.644;11.448;2023-10-31T06:08:36;3.50;;;0.87;;
12654;SDS011;6392;44.644;11.448;2023-10-31T06:11:04;3.70;;;0.67;;
12654;SDS011;6392;44.644;11.448;2023-10-31T06:13:31;2.43;;;0.70;;
12654;SDS011;6392;44.644;11.448;2023-10-31T06:15:59;1.00;;;0.60;;
12654;SDS011;6392;44.644;11.448;2023-10-31T06:18:27;2.63;;;0.53;;
12654;SDS011;6392;44.644;11.448;2023-10-31T06:20:54;2.27;;;0.60;;
12654;SDS011;6392;44.644;11.448;2023-10-31T06:23:24;3.70;;;0.70;;
12654;SDS011;6392;44.644;11.448;2023-10-31T06:25:51;1.60;;;0.70;;
12654;SDS011;6392;44.644;11.448;2023-10-31T06:28:18;2.40;;;0.60;;
12654;SDS011;6392;44.644;11.448;2023-10-31T06:30:45;2.97;;;0.80;;
12654;SDS011;6392;44.644;11.448;2023-10-31T06:33:12;1.47;;;0.70;;
12654;SDS011;6392;44.644;11.448;2023-10-31T06:35:39;1.87;;;0.80;;
12654;SDS011;6392;44.644;11.448;2023-10-31T06:38:06;5.00;;;0.83;;
12654;SDS011;6392;44.644;11.448;2023-10-31T06:40:34;1.60;;;0.77;;
12654;SDS011;6392;44.644;11.448;2023-10-31T06:43:01;3.20;;;0.60;;
12654;SDS011;6392;44.644;11.448;2023-10-31T06:45:28;0.93;;;0.60;;
12654;SDS011;6392;44.644;11.448;2023-10-31T06:47:55;1.63;;;0.63;;
12654;SDS011;6392;44.644;11.448;2023-10-31T06:50:22;2.10;;;0.50;;
12654;SDS011;6392;44.644;11.448;2023-10-31T06:52:50;3.00;;;0.50;;
12654;SDS011;6392;44.644;11.448;2023-10-31T06:55:17;1.10;;;0.57;;
12654;SDS011;6392;44.644;11.448;2023-10-31T06:57:45;4.87;;;1.47;;
12654;SDS011;6392;44.644;11.448;2023-10-31T07:00:13;2.43;;;0.80;;
12654;SDS011;6392;44.644;11.448;2023-10-31T07:02:40;1.67;;;0.50;;
12654;SDS011;6392;44.644;11.448;2023-10-31T07:05:07;2.33;;;0.57;;
12654;SDS011;6392;44.644;11.448;2023-10-31T07:07:34;0.80;;;0.60;;
12654;SDS011;6392;44.644;11.448;2023-10-31T07:10:02;3.10;;;0.83;;
12654;SDS011;6392;44.644;11.448;2023-10-31T07:12:29;1.33;;;0.70;;
12654;SDS011;6392;44.644;11.448;2023-10-31T07:14:58;4.30;;;0.70;;
12654;SDS011;6392;44.644;11.448;2023-10-31T07:17:25;0.70;;;0.70;;
12654;SDS011;6392;44.644;11.448;2023-10-31T07:19:52;1.07;;;0.60;;
12654;SDS011;6392;44.644;11.448;2023-10-31T07:22:19;1.17;;;0.43;;
12654;SDS011;6392;44.644;11.448;2023-10-31T07:24:47;1.77;;;0.50;;
12654;SDS011;6392;44.644;11.448;2023-10-31T07:27:14;0.30;;;0.30;;
12654;SDS011;6392;44.644;11.448;2023-10-31T07:29:41;3.70;;;0.83;;
12654;SDS011;6392;44.644;11.448;2023-10-31T07:32:10;0.53;;;0.40;;
12654;SDS011;6392;44.644;11.448;2023-10-31T07:34:39;4.73;;;0.50;;
12654;SDS011;6392;44.644;11.448;2023-10-31T07:37:07;1.30;;;1.10;;
12654;SDS011;6392;44.644;11.448;2023-10-31T07:39:34;2.20;;;0.50;;
12654;SDS011;6392;44.644;11.448;2023-10-31T07:42:01;0.50;;;0.40;;
12654;SDS011;6392;44.644;11.448;2023-10-31T07:44:28;1.63;;;0.50;;
12654;SDS011;6392;44.644;11.448;2023-10-31T07:46:56;0.57;;;0.50;;
12654;SDS011;6392;44.644;11.448;2023-10-31T07:49:24;1.23;;;0.40;;
12654;SDS011;6392;44.644;11.448;2023-10-31T07:51:51;2.27;;;0.57;;
12654;SDS011;6392;44.644;11.448;2023-10-31T07:54:18;0.73;;;0.50;;
12654;SDS011;6392;44.644;11.448;2023-10-31T07:56:46;3.53;;;0.57;;
12654;SDS011;6392;44.644;11.448;2023-10-31T07:59:13;1.40;;;0.73;;
12654;SDS011;6392;44.644;11.448;2023-10-31T08:01:40;1.03;;;0.70;;
12654;SDS011;6392;44.644;11.448;2023-10-31T08:04:07;4.53;;;0.53;;
12654;SDS011;6392;44.644;11.448;2023-10-31T08:06:36;2.47;;;0.30;;
12654;SDS011;6392;44.644;11.448;2023-10-31T08:09:03;0.63;;;0.40;;
12654;SDS011;6392;44.644;11.448;2023-10-31T08:11:30;0.87;;;0.30;;
12654;SDS011;6392;44.644;11.448;2023-10-31T08:13:59;0.30;;;0.30;;
12654;SDS011;6392;44.644;11.448;2023-10-31T08:16:26;3.10;;;0.40;;
12654;SDS011;6392;44.644;11.448;2023-10-31T08:18:54;0.43;;;0.30;;
12654;SDS011;6392;44.644;11.448;2023-10-31T08:21:21;1.70;;;0.40;;
12654;SDS011;6392;44.644;11.448;2023-10-31T08:23:49;0.30;;;0.23;;
12654;SDS011;6392;44.644;11.448;2023-10-31T08:26:16;0.37;;;0.33;;
12654;SDS011;6392;44.644;11.448;2023-10-31T08:28:43;1.07;;;0.70;;
12654;SDS011;6392;44.644;11.448;2023-10-31T08:31:10;1.13;;;0.20;;
12654;SDS011;6392;44.644;11.448;2023-10-31T08:33:37;1.00;;;0.50;;
12654;SDS011;6392;44.644;11.448;2023-10-31T08:36:05;0.40;;;0.37;;
12654;SDS011;6392;44.644;11.448;2023-10-31T08:38:32;2.00;;;0.50;;
12654;SDS011;6392;44.644;11.448;2023-10-31T08:41:01;0.43;;;0.40;;
12654;SDS011;6392;44.644;11.448;2023-10-31T08:43:28;0.67;;;0.60;;
12654;SDS011;6392;44.644;11.448;2023-10-31T08:45:55;0.43;;;0.30;;
12654;SDS011;6392;44.644;11.448;2023-10-31T08:48:22;1.30;;;0.40;;
12654;SDS011;6392;44.644;11.448;2023-10-31T08:50:50;0.20;;;0.20;;
12654;SDS011;6392;44.644;11.448;2023-10-31T08:53:17;0.30;;;0.30;;
12654;SDS011;6392;44.644;11.448;2023-10-31T08:55:44;0.30;;;0.30;;
12654;SDS011;6392;44.644;11.448;2023-10-31T08:58:13;2.70;;;0.53;;
12654;SDS011;6392;44.644;11.448;2023-10-31T09:00:43;1.60;;;0.13;;
12654;SDS011;6392;44.644;11.448;2023-10-31T09:03:10;1.73;;;0.20;;
12654;SDS011;6392;44.644;11.448;2023-10-31T09:05:37;0.20;;;0.20;;
12654;SDS011;6392;44.644;11.448;2023-10-31T09:08:04;1.30;;;0.30;;
12654;SDS011;6392;44.644;11.448;2023-10-31T09:10:32;1.07;;;0.30;;
12654;SDS011;6392;44.644;11.448;2023-10-31T09:12:59;1.07;;;0.30;;
12654;SDS011;6392;44.644;11.448;2023-10-31T09:15:27;0.17;;;0.17;;
12654;SDS011;6392;44.644;11.448;2023-10-31T09:17:54;0.43;;;0.37;;
12654;SDS011;6392;44.644;11.448;2023-10-31T09:20:22;0.50;;;0.50;;
12654;SDS011;6392;44.644;11.448;2023-10-31T09:22:49;0.20;;;0.20;;
12654;SDS011;6392;44.644;11.448;2023-10-31T09:25:16;2.10;;;0.40;;
12654;SDS011;6392;44.644;11.448;2023-10-31T09:27:43;1.97;;;0.40;;
12654;SDS011;6392;44.644;11.448;2023-10-31T09:30:10;0.20;;;0.20;;
12654;SDS011;6392;44.644;11.448;2023-10-31T09:32:39;0.37;;;0.30;;
12654;SDS011;6392;44.644;11.448;2023-10-31T09:35:06;0.30;;;0.30;;
12654;SDS011;6392;44.644;11.448;2023-10-31T09:37:34;1.50;;;0.30;;
12654;SDS011;6392;44.644;11.448;2023-10-31T09:40:01;0.30;;;0.23;;
12654;SDS011;6392;44.644;11.448;2023-10-31T09:42:33;0.40;;;0.37;;
12654;SDS011;6392;44.644;11.448;2023-10-31T09:45:04;0.20;;;0.20;;
12654;SDS011;6392;44.644;11.448;2023-10-31T09:47:39;1.30;;;0.30;;
12654;SDS011;6392;44.644;11.448;2023-10-31T09:50:19;3.83;;;0.30;;
12654;SDS011;6392;44.644;11.448;2023-10-31T09:53:01;0.30;;;0.30;;
12654;SDS011;6392;44.644;11.448;2023-10-31T09:55:31;0.30;;;0.30;;
12654;SDS011;6392;44.644;11.448;2023-10-31T09:58:02;0.30;;;0.30;;
12654;SDS011;6392;44.644;11.448;2023-10-31T10:00:29;0.40;;;0.30;;
12654;SDS011;6392;44.644;11.448;2023-10-31T10:03:00;1.40;;;0.20;;
12654;SDS011;6392;44.644;11.448;2023-10-31T10:05:27;0.10;;;0.10;;
12654;SDS011;6392;44.644;11.448;2023-10-31T10:07:57;0.27;;;0.27;;
12654;SDS011;6392;44.644;11.448;2023-10-31T10:10:24;2.20;;;0.30;;
12654;SDS011;6392;44.644;11.448;2023-10-31T10:12:51;0.23;;;0.23;;
12654;SDS011;6392;44.644;11.448;2023-10-31T10:15:19;0.83;;;0.40;;
12654;SDS011;6392;44.644;11.448;2023-10-31T10:17:49;1.73;;;0.50;;
12654;SDS011;6392;44.644;11.448;2023-10-31T10:20:19;0.47;;;0.43;;
12654;SDS011;6392;44.644;11.448;2023-10-31T10:22:46;0.30;;;0.30;;
12654;SDS011;6392;44.644;11.448;2023-10-31T10:25:14;0.23;;;0.20;;
12654;SDS011;6392;44.644;11.448;2023-10-31T10:27:42;0.50;;;0.30;;
12654;SDS011;6392;44.644;11.448;2023-10-31T10:30:09;0.53;;;0.30;;
12654;SDS011;6392;44.644;11.448;2023-10-31T10:32:37;0.37;;;0.30;;
12654;SDS011;6392;44.644;11.448;2023-10-31T10:35:05;0.67;;;0.30;;
12654;SDS011;6392;44.644;11.448;2023-10-31T10:37:38;1.60;;;0.30;;
12654;SDS011;6392;44.644;11.448;2023-10-31T10:40:06;0.30;;;0.30;;
12654;SDS011;6392;44.644;11.448;2023-10-31T10:42:36;0.33;;;0.30;;
12654;SDS011;6392;44.644;11.448;2023-10-31T10:45:10;0.30;;;0.30;;
12654;SDS011;6392;44.644;11.448;2023-10-31T10:47:41;0.60;;;0.30;;
12654;SDS011;6392;44.644;11.448;2023-10-31T10:50:12;0.73;;;0.30;;
12654;SDS011;6392;44.644;11.448;2023-10-31T10:52:44;1.30;;;0.30;;
12654;SDS011;6392;44.644;11.448;2023-10-31T10:55:28;1.97;;;0.30;;
12654;SDS011;6392;44.644;11.448;2023-10-31T10:58:01;0.30;;;0.30;;
12654;SDS011;6392;44.644;11.448;2023-10-31T11:00:31;0.50;;;0.30;;
12654;SDS011;6392;44.644;11.448;2023-10-31T11:02:59;0.43;;;0.20;;
12654;SDS011;6392;44.644;11.448;2023-10-31T11:05:27;1.70;;;0.40;;
12654;SDS011;6392;44.644;11.448;2023-10-31T11:07:56;0.93;;;0.40;;
12654;SDS011;6392;44.644;11.448;2023-10-31T11:10:24;0.30;;;0.30;;
12654;SDS011;6392;44.644;11.448;2023-10-31T11:12:51;0.30;;;0.30;;
12654;SDS011;6392;44.644;11.448;2023-10-31T11:15:18;2.30;;;0.40;;
12654;SDS011;6392;44.644;11.448;2023-10-31T11:17:46;1.50;;;0.33;;
12654;SDS011;6392;44.644;11.448;2023-10-31T11:20:15;0.50;;;0.30;;
12654;SDS011;6392;44.644;11.448;2023-10-31T11:22:43;1.33;;;0.40;;
12654;SDS011;6392;44.644;11.448;2023-10-31T11:25:14;1.70;;;0.37;;
12654;SDS011;6392;44.644;11.448;2023-10-31T11:27:45;1.00;;;0.40;;
12654;SDS011;6392;44.644;11.448;2023-10-31T11:30:19;0.23;;;0.23;;
12654;SDS011;6392;44.644;11.448;2023-10-31T11:32:48;0.20;;;0.20;;
12654;SDS011;6392;44.644;11.448;2023-10-31T11:35:16;1.27;;;0.47;;
12654;SDS011;6392;44.644;11.448;2023-10-31T11:37:43;0.20;;;0.20;;
12654;SDS011;6392;44.644;11.448;2023-10-31T11:40:18;0.20;;;0.20;;
12654;SDS011;6392;44.644;11.448;2023-10-31T11:42:48;0.70;;;0.40;;
12654;SDS011;6392;44.644;11.448;2023-10-31T11:45:25;0.30;;;0.20;;
12654;SDS011;6392;44.644;11.448;2023-10-31T11:47:54;3.37;;;0.63;;
12654;SDS011;6392;44.644;11.448;2023-10-31T11:50:21;0.20;;;0.20;;
12654;SDS011;6392;44.644;11.448;2023-10-31T11:53:05;0.50;;;0.30;;
12654;SDS011;6392;44.644;11.448;2023-10-31T11:55:35;0.30;;;0.30;;
12654;SDS011;6392;44.644;11.448;2023-10-31T11:58:15;0.20;;;0.20;;
12654;SDS011;6392;44.644;11.448;2023-10-31T12:00:43;0.30;;;0.30;;
12654;SDS011;6392;44.644;11.448;2023-10-31T12:03:11;0.20;;;0.20;;
12654;SDS011;6392;44.644;11.448;2023-10-31T12:05:39;0.20;;;0.20;;
12654;SDS011;6392;44.644;11.448;2023-10-31T12:08:06;0.90;;;0.30;;
12654;SDS011;6392;44.644;11.448;2023-10-31T12:10:33;0.10;;;0.10;;
12654;SDS011;6392;44.644;11.448;2023-10-31T12:13:01;0.20;;;0.20;;
12654;SDS011;6392;44.644;11.448;2023-10-31T12:15:28;0.30;;;0.30;;
12654;SDS011;6392;44.644;11.448;2023-10-31T12:17:58;0.20;;;0.20;;
12654;SDS011;6392;44.644;11.448;2023-10-31T12:20:26;0.60;;;0.30;;
12654;SDS011;6392;44.644;11.448;2023-10-31T12:23:02;0.20;;;0.20;;
12654;SDS011;6392;44.644;11.448;2023-10-31T12:25:30;0.30;;;0.30;;
12654;SDS011;6392;44.644;11.448;2023-10-31T12:28:01;0.27;;;0.20;;
12654;SDS011;6392;44.644;11.448;2023-10-31T12:30:28;0.30;;;0.30;;
12654;SDS011;6392;44.644;11.448;2023-10-31T12:32:56;1.23;;;0.20;;
12654;SDS011;6392;44.644;11.448;2023-10-31T12:35:23;0.20;;;0.20;;
12654;SDS011;6392;44.644;11.448;2023-10-31T12:37:52;0.37;;;0.20;;
12654;SDS011;6392;44.644;11.448;2023-10-31T12:40:21;0.20;;;0.20;;
12654;SDS011;6392;44.644;11.448;2023-10-31T12:42:49;0.20;;;0.20;;
12654;SDS011;6392;44.644;11.448;2023-10-31T12:45:18;3.20;;;0.50;;
12654;SDS011;6392;44.644;11.448;2023-10-31T12:47:59;0.20;;;0.20;;
12654;SDS011;6392;44.644;11.448;2023-10-31T12:50:27;0.23;;;0.23;;
12654;SDS011;6392;44.644;11.448;2023-10-31T12:52:54;0.30;;;0.30;;
12654;SDS011;6392;44.644;11.448;2023-10-31T12:55:23;0.30;;;0.30;;
12654;SDS011;6392;44.644;11.448;2023-10-31T12:57:51;1.40;;;0.20;;
12654;SDS011;6392;44.644;11.448;2023-10-31T13:00:20;0.10;;;0.10;;
12654;SDS011;6392;44.644;11.448;2023-10-31T13:02:51;0.20;;;0.20;;
12654;SDS011;6392;44.644;11.448;2023-10-31T13:05:25;0.20;;;0.20;;
12654;SDS011;6392;44.644;11.448;2023-10-31T13:07:53;0.20;;;0.20;;
12654;SDS011;6392;44.644;11.448;2023-10-31T13:10:21;0.87;;;0.20;;
12654;SDS011;6392;44.644;11.448;2023-10-31T13:12:49;0.43;;;0.30;;
12654;SDS011;6392;44.644;11.448;2023-10-31T13:15:17;0.20;;;0.20;;
12654;SDS011;6392;44.644;11.448;2023-10-31T13:17:47;0.77;;;0.30;;
12654;SDS011;6392;44.644;11.448;2023-10-31T13:20:17;0.20;;;0.20;;
12654;SDS011;6392;44.644;11.448;2023-10-31T13:22:45;0.73;;;0.33;;
12654;SDS011;6392;44.644;11.448;2023-10-31T13:25:12;0.40;;;0.40;;
12654;SDS011;6392;44.644;11.448;2023-10-31T13:27:41;0.30;;;0.30;;
12654;SDS011;6392;44.644;11.448;2023-10-31T13:30:09;0.70;;;0.40;;
12654;SDS011;6392;44.644;11.448;2023-10-31T13:32:40;0.30;;;0.30;;
12654;SDS011;6392;44.644;11.448;2023-10-31T13:35:07;0.60;;;0.33;;
12654;SDS011;6392;44.644;11.448;2023-10-31T13:37:35;0.20;;;0.20;;
12654;SDS011;6392;44.644;11.448;2023-10-31T13:40:02;0.47;;;0.40;;
12654;SDS011;6392;44.644;11.448;2023-10-31T13:42:30;0.40;;;0.40;;
12654;SDS011;6392;44.644;11.448;2023-10-31T13:44:57;0.40;;;0.20;;
12654;SDS011;6392;44.644;11.448;2023-10-31T13:47:24;0.20;;;0.20;;
12654;SDS011;6392;44.644;11.448;2023-10-31T13:49:53;0.30;;;0.30;;
12654;SDS011;6392;44.644;11.448;2023-10-31T13:52:20;0.73;;;0.30;;
12654;SDS011;6392;44.644;11.448;2023-10-31T13:54:47;0.20;;;0.20;;
12654;SDS011;6392;44.644;11.448;2023-10-31T13:57:14;0.20;;;0.20;;
12654;SDS011;6392;44.644;11.448;2023-10-31T13:59:41;0.40;;;0.30;;
12654;SDS011;6392;44.644;11.448;2023-10-31T14:02:08;0.30;;;0.30;;
12654;SDS011;6392;44.644;11.448;2023-10-31T14:04:35;0.40;;;0.33;;
12654;SDS011;6392;44.644;11.448;2023-10-31T14:07:04;0.30;;;0.30;;
12654;SDS011;6392;44.644;11.448;2023-10-31T14:09:31;0.20;;;0.20;;
12654;SDS011;6392;44.644;11.448;2023-10-31T14:11:58;0.20;;;0.20;;
12654;SDS011;6392;44.644;11.448;2023-10-31T14:14:26;0.30;;;0.30;;
12654;SDS011;6392;44.644;11.448;2023-10-31T14:16:53;0.30;;;0.30;;
12654;SDS011;6392;44.644;11.448;2023-10-31T14:19:20;0.83;;;0.33;;
12654;SDS011;6392;44.644;11.448;2023-10-31T14:21:47;0.70;;;0.40;;
12654;SDS011;6392;44.644;11.448;2023-10-31T14:24:16;0.37;;;0.33;;
12654;SDS011;6392;44.644;11.448;2023-10-31T14:26:43;0.23;;;0.20;;
12654;SDS011;6392;44.644;11.448;2023-10-31T14:29:11;0.53;;;0.50;;
12654;SDS011;6392;44.644;11.448;2023-10-31T14:31:38;0.80;;;0.30;;
12654;SDS011;6392;44.644;11.448;2023-10-31T14:34:06;1.20;;;0.40;;
12654;SDS011;6392;44.644;11.448;2023-10-31T14:36:33;2.57;;;0.40;;
12654;SDS011;6392;44.644;11.448;2023-10-31T14:39:00;0.73;;;0.40;;
12654;SDS011;6392;44.644;11.448;2023-10-31T14:41:29;0.20;;;0.20;;
12654;SDS011;6392;44.644;11.448;2023-10-31T14:43:58;0.73;;;0.43;;
12654;SDS011;6392;44.644;11.448;2023-10-31T14:46:26;0.30;;;0.30;;
12654;SDS011;6392;44.644;11.448;2023-10-31T14:48:53;1.07;;;0.60;;
12654;SDS011;6392;44.644;11.448;2023-10-31T14:51:20;0.40;;;0.40;;
12654;SDS011;6392;44.644;11.448;2023-10-31T14:53:48;1.73;;;0.57;;